createdAt,value
2023-02-05T00:00:05.028Z,5.800000
2023-02-05T00:01:01.187Z,5.800000
2023-02-05T00:02:01.313Z,5.800000
2023-02-05T00:03:01.303Z,5.800000
2023-02-05T00:04:01.244Z,5.800000
2023-02-05T00:05:05.440Z,5.200000
2023-02-05T00:06:01.295Z,5.200000
2023-02-05T00:07:00.206Z,5.200000
2023-02-05T00:08:00.272Z,5.200000
2023-02-05T00:09:00.222Z,5.200000
2023-02-05T00:10:05.088Z,0.000000
2023-02-05T00:11:00.292Z,0.000000
2023-02-05T00:12:00.337Z,0.000000
2023-02-05T00:13:00.238Z,0.000000
2023-02-05T00:14:00.308Z,0.000000
2023-02-05T00:15:04.634Z,0.000000
2023-02-05T00:16:00.333Z,0.000000
2023-02-05T00:17:00.313Z,0.000000
2023-02-05T00:18:00.361Z,0.000000
2023-02-05T00:19:00.269Z,0.000000
2023-02-05T00:20:03.848Z,0.000000
2023-02-05T00:21:00.299Z,0.000000
2023-02-05T00:22:00.358Z,0.000000
2023-02-05T00:23:00.322Z,0.000000
2023-02-05T00:24:00.402Z,0.000000
2023-02-05T00:25:04.610Z,0.000000
2023-02-05T00:26:00.406Z,0.000000
2023-02-05T00:27:00.368Z,0.000000
2023-02-05T00:28:00.452Z,0.000000
2023-02-05T00:29:00.377Z,0.000000
2023-02-05T00:30:03.838Z,0.000000
2023-02-05T00:31:00.467Z,5.800000
2023-02-05T00:32:00.421Z,5.800000
2023-02-05T00:33:00.373Z,6.100000
2023-02-05T00:34:00.428Z,6.100000
2023-02-05T00:35:04.769Z,7.500000
2023-02-05T00:36:00.477Z,7.500000
2023-02-05T00:37:00.386Z,7.500000
2023-02-05T00:38:00.443Z,7.500000
2023-02-05T00:39:00.408Z,7.500000
2023-02-05T00:40:03.979Z,7.500000
2023-02-05T00:41:00.453Z,6.500000
2023-02-05T00:42:00.485Z,6.500000
2023-02-05T00:43:00.432Z,6.500000
2023-02-05T00:44:00.522Z,6.500000
2023-02-05T00:45:04.707Z,6.500000
2023-02-05T00:46:00.606Z,4.300000
2023-02-05T00:47:00.462Z,4.300000
2023-02-05T00:48:00.544Z,4.300000
2023-02-05T00:49:00.449Z,6.400000
2023-02-05T00:50:06.698Z,6.400000
2023-02-05T00:51:00.504Z,6.400000
2023-02-05T00:52:00.567Z,6.400000
2023-02-05T00:53:00.673Z,6.400000
2023-02-05T00:54:00.584Z,6.900000
2023-02-05T00:55:03.750Z,6.900000
2023-02-05T00:56:00.590Z,6.900000
2023-02-05T00:57:00.506Z,6.900000
2023-02-05T00:58:00.571Z,6.400000
2023-02-05T00:59:00.588Z,6.400000
2023-02-05T01:00:05.100Z,6.400000
2023-02-05T01:01:00.562Z,6.400000
2023-02-05T01:02:00.630Z,6.400000
2023-02-05T01:03:00.581Z,6.400000
2023-02-05T01:04:00.651Z,0.000000
2023-02-05T01:05:03.978Z,0.000000
2023-02-05T01:06:00.657Z,5.300000
2023-02-05T01:07:00.580Z,5.300000
2023-02-05T01:08:00.649Z,5.900000
2023-02-05T01:09:00.607Z,5.900000
2023-02-05T01:10:06.120Z,5.900000
2023-02-05T01:11:00.613Z,6.300000
2023-02-05T01:12:00.688Z,6.300000
2023-02-05T01:13:00.639Z,6.300000
2023-02-05T01:14:00.707Z,6.500000
2023-02-05T01:15:03.947Z,6.500000
2023-02-05T01:16:00.779Z,6.500000
2023-02-05T01:17:00.646Z,6.500000
2023-02-05T01:18:00.738Z,6.500000
2023-02-05T01:19:00.667Z,6.500000
2023-02-05T01:20:05.206Z,6.500000
2023-02-05T01:21:00.690Z,6.500000
2023-02-05T01:22:00.772Z,6.500000
2023-02-05T01:23:00.697Z,6.500000
2023-02-05T01:24:00.777Z,6.800000
2023-02-05T01:25:05.779Z,6.800000
2023-02-05T01:26:00.766Z,6.800000
2023-02-05T01:27:00.733Z,6.800000
2023-02-05T01:28:00.861Z,6.800000
2023-02-05T01:29:00.720Z,6.400000
2023-02-05T01:30:05.232Z,6.400000
2023-02-05T01:31:00.848Z,6.200000
2023-02-05T01:32:00.834Z,6.200000
2023-02-05T01:33:00.779Z,6.200000
2023-02-05T01:34:00.842Z,6.200000
2023-02-05T01:35:05.908Z,6.200000
2023-02-05T01:36:00.870Z,6.200000
2023-02-05T01:37:00.783Z,6.300000
2023-02-05T01:38:00.872Z,6.300000
2023-02-05T01:39:00.820Z,6.300000
2023-02-05T01:40:04.347Z,6.300000
2023-02-05T01:41:00.795Z,6.300000
2023-02-05T01:42:00.885Z,6.300000
2023-02-05T01:43:00.839Z,6.300000
2023-02-05T01:44:00.900Z,6.300000
2023-02-05T01:45:05.719Z,6.300000
2023-02-05T01:46:00.977Z,6.300000
2023-02-05T01:47:00.854Z,6.300000
2023-02-05T01:48:00.925Z,6.300000
2023-02-05T01:49:00.835Z,6.100000
2023-02-05T01:50:05.394Z,6.100000
2023-02-05T01:51:00.898Z,6.100000
2023-02-05T01:52:00.924Z,6.100000
2023-02-05T01:53:00.848Z,6.500000
2023-02-05T01:54:00.981Z,6.500000
2023-02-05T01:55:05.118Z,6.500000
2023-02-05T01:56:00.954Z,6.500000
2023-02-05T01:57:00.939Z,6.500000
2023-02-05T01:58:00.970Z,6.500000
2023-02-05T01:59:00.880Z,6.500000
2023-02-05T02:00:07.597Z,6.500000
2023-02-05T02:01:00.956Z,5.900000
2023-02-05T02:02:01.017Z,5.900000
2023-02-05T02:03:04.222Z,5.900000
2023-02-05T02:04:01.024Z,5.500000
2023-02-05T02:05:04.291Z,5.500000
2023-02-05T02:06:01.048Z,5.500000
2023-02-05T02:07:00.976Z,0.000000
2023-02-05T02:08:01.052Z,0.000000
2023-02-05T02:09:01.041Z,0.000000
2023-02-05T02:10:05.528Z,0.000000
2023-02-05T02:11:01.010Z,0.000000
2023-02-05T02:12:01.099Z,0.000000
2023-02-05T02:13:01.016Z,0.000000
2023-02-05T02:14:01.101Z,0.000000
2023-02-05T02:15:05.464Z,0.000000
2023-02-05T02:16:01.186Z,0.000000
2023-02-05T02:17:01.065Z,0.000000
2023-02-05T02:18:01.147Z,0.000000
2023-02-05T02:19:01.053Z,0.000000
2023-02-05T02:20:05.576Z,0.000000
2023-02-05T02:21:01.102Z,0.000000
2023-02-05T02:22:01.129Z,0.000000
2023-02-05T02:23:01.064Z,0.000000
2023-02-05T02:24:01.158Z,0.000000
2023-02-05T02:25:04.391Z,0.000000
2023-02-05T02:26:01.181Z,0.000000
2023-02-05T02:27:01.120Z,0.000000
2023-02-05T02:28:01.212Z,0.000000
2023-02-05T02:29:01.133Z,0.000000
2023-02-05T02:30:05.665Z,0.000000
2023-02-05T02:31:01.288Z,0.000000
2023-02-05T02:32:01.253Z,5.100000
2023-02-05T02:33:01.169Z,5.100000
2023-02-05T02:34:01.264Z,5.100000
2023-02-05T02:35:07.443Z,5.500000
2023-02-05T02:36:01.241Z,5.500000
2023-02-05T02:37:00.169Z,5.600000
2023-02-05T02:38:00.282Z,5.600000
2023-02-05T02:39:00.223Z,5.700000
2023-02-05T02:40:05.401Z,5.700000
2023-02-05T02:41:00.229Z,5.700000
2023-02-05T02:42:00.321Z,0.000000
2023-02-05T02:43:00.226Z,0.000000
2023-02-05T02:44:00.334Z,0.000000
2023-02-05T02:45:04.602Z,5.700000
2023-02-05T02:46:00.299Z,5.700000
2023-02-05T02:47:00.262Z,4.000000
2023-02-05T02:48:00.356Z,4.000000
2023-02-05T02:49:00.281Z,5.000000
2023-02-05T02:50:04.996Z,5.000000
2023-02-05T02:51:00.292Z,5.000000
2023-02-05T02:52:00.363Z,0.000000
2023-02-05T02:53:00.301Z,0.000000
2023-02-05T02:54:00.367Z,0.000000
2023-02-05T02:55:05.532Z,4.500000
2023-02-05T02:56:00.384Z,4.500000
2023-02-05T02:57:00.337Z,4.800000
2023-02-05T02:58:00.365Z,4.800000
2023-02-05T02:59:00.330Z,4.800000
2023-02-05T03:00:05.106Z,0.000000
2023-02-05T03:01:00.584Z,0.000000
2023-02-05T03:02:00.420Z,0.000000
2023-02-05T03:03:00.365Z,0.000000
2023-02-05T03:04:00.558Z,0.000000
2023-02-05T03:05:04.761Z,0.000000
2023-02-05T03:06:00.492Z,0.000000
2023-02-05T03:07:00.432Z,0.000000
2023-02-05T03:08:00.477Z,0.000000
2023-02-05T03:09:00.410Z,0.000000
2023-02-05T03:10:05.822Z,0.000000
2023-02-05T03:11:00.416Z,0.000000
2023-02-05T03:12:00.524Z,0.000000
2023-02-05T03:13:00.442Z,0.000000
2023-02-05T03:14:00.480Z,0.000000
2023-02-05T03:15:03.735Z,0.000000
2023-02-05T03:16:00.586Z,0.000000
2023-02-05T03:17:00.441Z,0.000000
2023-02-05T03:18:00.520Z,0.000000
2023-02-05T03:19:00.475Z,0.000000
2023-02-05T03:20:04.930Z,0.000000
2023-02-05T03:21:00.474Z,0.000000
2023-02-05T03:22:00.573Z,0.000000
2023-02-05T03:23:00.481Z,0.000000
2023-02-05T03:24:00.563Z,0.000000
2023-02-05T03:25:04.876Z,0.000000
2023-02-05T03:26:00.593Z,0.000000
2023-02-05T03:27:00.509Z,0.000000
2023-02-05T03:28:00.664Z,6.400000
2023-02-05T03:29:00.506Z,6.400000
2023-02-05T03:30:05.043Z,6.400000
2023-02-05T03:31:00.602Z,6.400000
2023-02-05T03:32:00.600Z,4.000000
2023-02-05T03:33:00.554Z,4.000000
2023-02-05T03:34:00.618Z,4.000000
2023-02-05T03:35:07.622Z,9.000000
2023-02-05T03:36:00.655Z,9.000000
2023-02-05T03:37:00.611Z,9.000000
2023-02-05T03:38:00.683Z,9.000000
2023-02-05T03:39:00.605Z,9.000000
2023-02-05T03:40:04.159Z,8.300000
2023-02-05T03:41:00.600Z,8.300000
2023-02-05T03:42:00.705Z,7.800000
2023-02-05T03:43:00.635Z,7.800000
2023-02-05T03:44:00.678Z,7.800000
2023-02-05T03:45:07.004Z,7.800000
2023-02-05T03:46:00.817Z,7.800000
2023-02-05T03:47:00.639Z,7.800000
2023-02-05T03:48:00.715Z,7.100000
2023-02-05T03:49:00.678Z,7.100000
2023-02-05T03:50:05.313Z,7.000000
2023-02-05T03:51:00.674Z,7.000000
2023-02-05T03:52:00.815Z,7.000000
2023-02-05T03:53:00.680Z,7.000000
2023-02-05T03:54:00.804Z,7.000000
2023-02-05T03:55:05.098Z,6.600000
2023-02-05T03:56:00.750Z,6.600000
2023-02-05T03:57:00.709Z,6.600000
2023-02-05T03:58:00.759Z,6.800000
2023-02-05T03:59:00.686Z,6.800000
2023-02-05T04:00:04.359Z,6.800000
2023-02-05T04:01:00.809Z,0.000000
2023-02-05T04:02:00.835Z,0.000000
2023-02-05T04:03:00.760Z,4.400000
2023-02-05T04:04:00.801Z,4.400000
2023-02-05T04:05:05.808Z,4.700000
2023-02-05T04:06:00.863Z,4.700000
2023-02-05T04:07:00.806Z,4.700000
2023-02-05T04:08:00.838Z,4.700000
2023-02-05T04:09:00.776Z,4.700000
2023-02-05T04:10:04.401Z,4.700000
2023-02-05T04:11:00.770Z,4.000000
2023-02-05T04:12:00.864Z,4.000000
2023-02-05T04:13:00.824Z,4.100000
2023-02-05T04:14:00.868Z,4.100000
2023-02-05T04:15:05.073Z,4.900000
2023-02-05T04:16:00.875Z,4.900000
2023-02-05T04:17:00.805Z,4.900000
2023-02-05T04:18:00.891Z,0.000000
2023-02-05T04:19:00.860Z,0.000000
2023-02-05T04:20:07.383Z,0.000000
2023-02-05T04:21:00.843Z,0.000000
2023-02-05T04:22:00.899Z,0.000000
2023-02-05T04:23:00.848Z,0.000000
2023-02-05T04:24:00.994Z,0.000000
2023-02-05T04:25:05.286Z,0.000000
2023-02-05T04:26:00.917Z,0.000000
2023-02-05T04:27:00.875Z,0.000000
2023-02-05T04:28:01.002Z,0.000000
2023-02-05T04:29:00.874Z,0.000000
2023-02-05T04:30:06.444Z,0.000000
2023-02-05T04:31:00.935Z,0.000000
2023-02-05T04:32:00.978Z,0.000000
2023-02-05T04:33:00.896Z,0.000000
2023-02-05T04:34:00.965Z,0.000000
2023-02-05T04:35:04.231Z,0.000000
2023-02-05T04:36:01.026Z,0.000000
2023-02-05T04:37:00.925Z,0.000000
2023-02-05T04:38:01.004Z,0.000000
2023-02-05T04:39:00.935Z,0.000000
2023-02-05T04:40:05.543Z,0.000000
2023-02-05T04:41:00.989Z,0.000000
2023-02-05T04:42:01.047Z,0.000000
2023-02-05T04:43:00.956Z,0.000000
2023-02-05T04:44:01.054Z,0.000000
2023-02-05T04:45:04.267Z,0.000000
2023-02-05T04:46:01.102Z,0.000000
2023-02-05T04:47:00.984Z,0.000000
2023-02-05T04:48:01.106Z,0.000000
2023-02-05T04:49:01.003Z,0.000000
2023-02-05T04:50:05.485Z,0.000000
2023-02-05T04:51:01.023Z,0.000000
2023-02-05T04:52:01.122Z,0.000000
2023-02-05T04:53:01.020Z,0.000000
2023-02-05T04:54:01.137Z,0.000000
2023-02-05T04:55:07.698Z,0.000000
2023-02-05T04:56:01.130Z,0.000000
2023-02-05T04:57:01.261Z,0.000000
2023-02-05T04:58:01.129Z,0.000000
2023-02-05T04:59:01.063Z,0.000000
2023-02-05T05:00:05.732Z,0.000000
2023-02-05T05:01:01.150Z,0.000000
2023-02-05T05:02:01.194Z,0.000000
2023-02-05T05:03:01.138Z,0.000000
2023-02-05T05:04:01.201Z,0.000000
2023-02-05T05:05:05.423Z,0.000000
2023-02-05T05:06:01.236Z,0.000000
2023-02-05T05:07:01.136Z,0.000000
2023-02-05T05:08:01.215Z,0.000000
2023-02-05T05:09:01.166Z,0.000000
2023-02-05T05:10:04.640Z,0.000000
2023-02-05T05:11:01.231Z,0.000000
2023-02-05T05:12:01.277Z,0.000000
2023-02-05T05:13:01.222Z,4.100000
2023-02-05T05:14:01.245Z,4.500000
2023-02-05T05:15:06.432Z,4.500000
2023-02-05T05:16:01.296Z,4.500000
2023-02-05T05:17:01.252Z,5.000000
2023-02-05T05:18:00.277Z,5.000000
2023-02-05T05:19:00.208Z,5.700000
2023-02-05T05:20:03.827Z,5.700000
2023-02-05T05:21:00.228Z,5.700000
2023-02-05T05:22:00.297Z,5.700000
2023-02-05T05:23:00.277Z,5.700000
2023-02-05T05:24:00.348Z,6.700000
2023-02-05T05:25:05.227Z,6.700000
2023-02-05T05:26:00.325Z,6.700000
2023-02-05T05:27:00.287Z,6.700000
2023-02-05T05:28:00.371Z,6.700000
2023-02-05T05:29:00.321Z,6.200000
2023-02-05T05:30:04.947Z,6.200000
2023-02-05T05:31:00.317Z,6.200000
2023-02-05T05:32:00.383Z,5.500000
2023-02-05T05:33:00.295Z,5.500000
2023-02-05T05:34:00.354Z,5.800000
2023-02-05T05:35:04.682Z,5.800000
2023-02-05T05:36:00.395Z,5.800000
2023-02-05T05:37:00.336Z,5.200000
2023-02-05T05:38:00.416Z,5.200000
2023-02-05T05:39:00.355Z,5.200000
2023-02-05T05:40:04.862Z,5.200000
2023-02-05T05:41:00.370Z,5.200000
2023-02-05T05:42:00.466Z,4.600000
2023-02-05T05:43:00.366Z,4.600000
2023-02-05T05:44:00.428Z,4.600000
2023-02-05T05:45:04.758Z,0.000000
2023-02-05T05:46:00.603Z,0.000000
2023-02-05T05:47:00.421Z,0.000000
2023-02-05T05:48:00.502Z,0.000000
2023-02-05T05:49:00.388Z,0.000000
2023-02-05T05:50:04.024Z,4.800000
2023-02-05T05:51:00.428Z,5.300000
2023-02-05T05:52:00.485Z,5.300000
2023-02-05T05:53:00.455Z,5.300000
2023-02-05T05:54:00.549Z,5.300000
2023-02-05T05:55:04.726Z,6.000000
2023-02-05T05:56:00.530Z,6.000000
2023-02-05T05:57:00.472Z,4.300000
2023-02-05T05:58:00.521Z,4.300000
2023-02-05T05:59:00.511Z,4.300000
2023-02-05T06:00:11.731Z,5.700000
2023-02-05T06:01:00.531Z,5.700000
2023-02-05T06:02:00.609Z,5.700000
2023-02-05T06:03:00.564Z,5.200000
2023-02-05T06:04:03.649Z,5.200000
2023-02-05T06:05:04.945Z,4.700000
2023-02-05T06:06:00.637Z,4.700000
2023-02-05T06:07:00.570Z,0.000000
2023-02-05T06:08:00.659Z,0.000000
2023-02-05T06:09:00.579Z,0.000000
2023-02-05T06:10:05.264Z,0.000000
2023-02-05T06:11:00.604Z,0.000000
2023-02-05T06:12:00.673Z,0.000000
2023-02-05T06:13:00.616Z,0.000000
2023-02-05T06:14:00.679Z,0.000000
2023-02-05T06:15:05.004Z,4.500000
2023-02-05T06:16:00.908Z,4.500000
2023-02-05T06:17:00.629Z,4.000000
2023-02-05T06:18:00.730Z,4.000000
2023-02-05T06:19:00.625Z,0.000000
2023-02-05T06:20:08.167Z,0.000000
2023-02-05T06:21:00.659Z,0.000000
2023-02-05T06:22:00.752Z,0.000000
2023-02-05T06:23:00.653Z,0.000000
2023-02-05T06:24:00.726Z,0.000000
2023-02-05T06:25:04.212Z,0.000000
2023-02-05T06:26:00.751Z,0.000000
2023-02-05T06:27:00.694Z,0.000000
2023-02-05T06:28:00.896Z,0.000000
2023-02-05T06:29:00.685Z,0.000000
2023-02-05T06:30:05.282Z,0.000000
2023-02-05T06:31:00.869Z,0.000000
2023-02-05T06:32:00.832Z,0.000000
2023-02-05T06:33:00.721Z,0.000000
2023-02-05T06:34:00.829Z,0.000000
2023-02-05T06:35:05.108Z,0.000000
2023-02-05T06:36:00.830Z,0.000000
2023-02-05T06:37:00.742Z,0.000000
2023-02-05T06:38:00.817Z,0.000000
2023-02-05T06:39:00.780Z,0.000000
2023-02-05T06:40:07.685Z,0.000000
2023-02-05T06:41:00.782Z,0.000000
2023-02-05T06:42:00.878Z,4.000000
2023-02-05T06:43:00.799Z,4.000000
2023-02-05T06:44:00.882Z,4.000000
2023-02-05T06:45:04.356Z,0.000000
2023-02-05T06:46:00.978Z,0.000000
2023-02-05T06:47:00.798Z,0.000000
2023-02-05T06:48:00.923Z,0.000000
2023-02-05T06:49:00.853Z,0.000000
2023-02-05T06:50:05.375Z,0.000000
2023-02-05T06:51:00.872Z,0.000000
2023-02-05T06:52:00.933Z,0.000000
2023-02-05T06:53:00.865Z,0.000000
2023-02-05T06:54:00.957Z,0.000000
2023-02-05T06:55:05.104Z,0.000000
2023-02-05T06:56:01.094Z,0.000000
2023-02-05T06:57:00.888Z,0.000000
2023-02-05T06:58:01.002Z,0.000000
2023-02-05T06:59:00.915Z,0.000000
2023-02-05T07:00:05.590Z,0.000000
2023-02-05T07:01:00.911Z,0.000000
2023-02-05T07:02:01.074Z,0.000000
2023-02-05T07:03:01.005Z,0.000000
2023-02-05T07:04:01.077Z,0.000000
2023-02-05T07:05:04.179Z,0.000000
2023-02-05T07:06:01.046Z,0.000000
2023-02-05T07:07:00.950Z,0.000000
2023-02-05T07:08:01.028Z,0.000000
2023-02-05T07:09:00.960Z,0.000000
2023-02-05T07:10:06.250Z,0.000000
2023-02-05T07:11:00.989Z,0.000000
2023-02-05T07:12:01.080Z,0.000000
2023-02-05T07:13:01.003Z,4.500000
2023-02-05T07:14:01.062Z,4.500000
2023-02-05T07:15:08.472Z,4.500000
2023-02-05T07:16:01.147Z,4.500000
2023-02-05T07:17:01.031Z,4.500000
2023-02-05T07:18:01.140Z,0.000000
2023-02-05T07:19:01.033Z,0.000000
2023-02-05T07:20:05.754Z,0.000000
2023-02-05T07:21:01.104Z,0.000000
2023-02-05T07:22:01.149Z,0.000000
2023-02-05T07:23:01.063Z,0.000000
2023-02-05T07:24:01.159Z,0.000000
2023-02-05T07:25:05.622Z,0.000000
2023-02-05T07:26:01.193Z,0.000000
2023-02-05T07:27:01.121Z,0.000000
2023-02-05T07:28:01.229Z,0.000000
2023-02-05T07:29:01.092Z,0.000000
2023-02-05T07:30:06.718Z,0.000000
2023-02-05T07:31:01.174Z,0.000000
2023-02-05T07:32:01.282Z,0.000000
2023-02-05T07:33:01.139Z,0.000000
2023-02-05T07:34:01.202Z,0.000000
2023-02-05T07:35:05.405Z,0.000000
2023-02-05T07:36:01.257Z,0.000000
2023-02-05T07:37:01.167Z,0.000000
2023-02-05T07:38:01.270Z,0.000000
2023-02-05T07:39:01.161Z,0.000000
2023-02-05T07:40:05.997Z,0.000000
2023-02-05T07:41:01.180Z,4.300000
2023-02-05T07:42:01.263Z,4.300000
2023-02-05T07:43:01.175Z,5.100000
2023-02-05T07:44:01.285Z,5.100000
2023-02-05T07:45:04.675Z,5.100000
2023-02-05T07:46:01.262Z,5.200000
2023-02-05T07:47:01.200Z,5.200000
2023-02-05T07:48:01.289Z,5.500000
2023-02-05T07:49:00.204Z,5.500000
2023-02-05T07:50:07.060Z,5.000000
2023-02-05T07:51:00.236Z,5.000000
2023-02-05T07:52:00.336Z,5.000000
2023-02-05T07:53:00.247Z,5.300000
2023-02-05T07:54:00.319Z,5.300000
2023-02-05T07:55:03.588Z,5.300000
2023-02-05T07:56:00.339Z,4.000000
2023-02-05T07:57:00.291Z,4.000000
2023-02-05T07:58:00.332Z,4.500000
2023-02-05T07:59:00.285Z,4.500000
2023-02-05T08:00:07.039Z,0.000000
2023-02-05T08:01:00.365Z,0.000000
2023-02-05T08:02:00.382Z,0.000000
2023-02-05T08:03:00.339Z,0.000000
2023-02-05T08:04:00.432Z,0.000000
2023-02-05T08:05:04.579Z,0.000000
2023-02-05T08:06:00.436Z,0.000000
2023-02-05T08:07:00.360Z,0.000000
2023-02-05T08:08:00.460Z,4.900000
2023-02-05T08:09:00.353Z,4.900000
2023-02-05T08:10:08.445Z,4.100000
2023-02-05T08:11:00.371Z,4.100000
2023-02-05T08:12:00.445Z,4.100000
2023-02-05T08:13:00.365Z,4.100000
2023-02-05T08:14:00.507Z,4.000000
2023-02-05T08:15:03.803Z,4.000000
2023-02-05T08:16:00.568Z,4.500000
2023-02-05T08:17:00.420Z,4.500000
2023-02-05T08:18:00.496Z,4.500000
2023-02-05T08:19:00.414Z,5.300000
2023-02-05T08:20:05.100Z,5.300000
2023-02-05T08:21:00.448Z,6.200000
2023-02-05T08:22:00.540Z,6.200000
2023-02-05T08:23:00.454Z,6.200000
2023-02-05T08:24:00.734Z,5.700000
2023-02-05T08:25:05.733Z,5.700000
2023-02-05T08:26:00.542Z,5.300000
2023-02-05T08:27:00.500Z,5.300000
2023-02-05T08:28:00.647Z,5.300000
2023-02-05T08:29:00.496Z,7.000000
2023-02-05T08:30:04.312Z,7.000000
2023-02-05T08:31:00.640Z,7.000000
2023-02-05T08:32:00.576Z,7.000000
2023-02-05T08:33:00.528Z,7.000000
2023-02-05T08:34:00.620Z,7.100000
2023-02-05T08:35:04.816Z,7.100000
2023-02-05T08:36:00.625Z,7.100000
2023-02-05T08:37:00.546Z,7.100000
2023-02-05T08:38:00.597Z,7.100000
2023-02-05T08:39:00.558Z,6.100000
2023-02-05T08:40:05.145Z,6.100000
2023-02-05T08:41:00.561Z,6.100000
2023-02-05T08:42:00.667Z,6.400000
2023-02-05T08:43:00.602Z,6.400000
2023-02-05T08:44:00.680Z,6.400000
2023-02-05T08:45:04.866Z,6.400000
2023-02-05T08:46:00.724Z,6.400000
2023-02-05T08:47:00.597Z,6.400000
2023-02-05T08:48:00.690Z,6.400000
2023-02-05T08:49:00.650Z,5.000000
2023-02-05T08:50:05.636Z,5.000000
2023-02-05T08:51:00.642Z,5.000000
2023-02-05T08:52:00.719Z,6.300000
2023-02-05T08:53:00.630Z,6.300000
2023-02-05T08:54:00.704Z,6.300000
2023-02-05T08:55:05.188Z,6.300000
2023-02-05T08:56:00.748Z,6.300000
2023-02-05T08:57:00.680Z,5.000000
2023-02-05T08:58:00.734Z,5.000000
2023-02-05T08:59:00.678Z,5.000000
2023-02-05T09:00:05.368Z,7.000000
2023-02-05T09:01:00.819Z,7.000000
2023-02-05T09:02:00.751Z,7.000000
2023-02-05T09:03:00.743Z,7.000000
2023-02-05T09:04:00.794Z,7.000000
2023-02-05T09:05:09.311Z,7.600000
2023-02-05T09:06:00.804Z,7.600000
2023-02-05T09:07:00.740Z,9.900000
2023-02-05T09:08:00.801Z,9.900000
2023-02-05T09:09:00.738Z,9.900000
2023-02-05T09:10:05.215Z,9.900000
2023-02-05T09:11:00.758Z,9.900000
2023-02-05T09:12:28.422Z,7.600000
2023-02-05T09:13:00.774Z,7.600000
2023-02-05T09:14:00.841Z,7.600000
2023-02-05T09:15:05.460Z,0.000000
2023-02-05T09:16:00.864Z,0.000000
2023-02-05T09:17:00.781Z,5.000000
2023-02-05T09:18:00.861Z,5.000000
2023-02-05T09:19:00.823Z,5.000000
2023-02-05T09:20:04.437Z,5.000000
2023-02-05T09:21:00.827Z,5.000000
2023-02-05T09:22:00.907Z,5.000000
2023-02-05T09:23:00.837Z,5.000000
2023-02-05T09:24:00.920Z,5.000000
2023-02-05T09:25:05.304Z,6.100000
2023-02-05T09:26:00.943Z,6.100000
2023-02-05T09:27:00.897Z,0.000000
2023-02-05T09:28:01.003Z,0.000000
2023-02-05T09:29:00.895Z,0.000000
2023-02-05T09:30:05.597Z,5.100000
2023-02-05T09:31:01.131Z,5.100000
2023-02-05T09:32:00.978Z,5.100000
2023-02-05T09:33:00.915Z,6.700000
2023-02-05T09:34:00.976Z,6.700000
2023-02-05T09:35:07.555Z,6.700000
2023-02-05T09:36:01.000Z,6.700000
2023-02-05T09:37:00.916Z,6.700000
2023-02-05T09:38:00.989Z,6.700000
2023-02-05T09:39:14.163Z,6.900000
2023-02-05T09:40:20.506Z,6.900000
2023-02-05T09:41:00.930Z,6.900000
2023-02-05T09:42:01.017Z,6.900000
2023-02-05T09:43:01.071Z,6.900000
2023-02-05T09:44:01.078Z,10.300000
2023-02-05T09:45:05.288Z,10.300000
2023-02-05T09:46:01.086Z,10.300000
2023-02-05T09:47:00.979Z,10.300000
2023-02-05T09:48:01.067Z,10.300000
2023-02-05T09:49:01.021Z,16.800000
2023-02-05T09:50:06.251Z,16.800000
2023-02-05T09:51:01.032Z,16.800000
2023-02-05T09:52:01.075Z,16.800000
2023-02-05T09:53:01.031Z,16.800000
2023-02-05T09:54:01.105Z,16.800000
2023-02-05T09:55:04.547Z,15.400000
2023-02-05T09:56:01.107Z,15.400000
2023-02-05T09:57:01.038Z,15.400000
2023-02-05T09:58:01.128Z,14.900000
2023-02-05T09:59:01.069Z,14.900000
2023-02-05T10:00:08.572Z,18.300000
2023-02-05T10:01:01.092Z,18.300000
2023-02-05T10:02:01.120Z,13.500000
2023-02-05T10:03:01.060Z,13.500000
2023-02-05T10:04:01.170Z,13.500000
2023-02-05T10:05:04.382Z,13.500000
2023-02-05T10:06:01.183Z,13.500000
2023-02-05T10:07:01.075Z,14.500000
2023-02-05T10:08:01.156Z,14.500000
2023-02-05T10:09:01.096Z,14.500000
2023-02-05T10:10:05.565Z,17.500000
2023-02-05T10:11:01.121Z,17.500000
2023-02-05T10:12:01.208Z,17.500000
2023-02-05T10:13:01.104Z,17.500000
2023-02-05T10:14:01.204Z,17.500000
2023-02-05T10:15:06.282Z,10.100000
2023-02-05T10:16:01.348Z,10.100000
2023-02-05T10:17:01.137Z,10.100000
2023-02-05T10:18:01.225Z,14.500000
2023-02-05T10:19:01.161Z,14.500000
2023-02-05T10:20:07.365Z,12.900000
2023-02-05T10:21:01.159Z,12.900000
2023-02-05T10:22:01.217Z,12.900000
2023-02-05T10:23:01.158Z,19.000000
2023-02-05T10:24:01.454Z,19.000000
2023-02-05T10:25:05.456Z,19.000000
2023-02-05T10:26:01.232Z,19.000000
2023-02-05T10:27:01.182Z,15.600000
2023-02-05T10:28:00.280Z,15.600000
2023-02-05T10:29:00.184Z,15.600000
2023-02-05T10:30:03.885Z,14.300000
2023-02-05T10:31:00.344Z,14.300000
2023-02-05T10:32:00.304Z,14.300000
2023-02-05T10:33:00.225Z,19.000000
2023-02-05T10:34:00.309Z,19.000000
2023-02-05T10:35:04.613Z,11.100000
2023-02-05T10:36:00.342Z,11.100000
2023-02-05T10:37:00.245Z,11.100000
2023-02-05T10:38:00.364Z,11.100000
2023-02-05T10:39:00.276Z,11.100000
2023-02-05T10:40:04.942Z,21.200000
2023-02-05T10:41:00.634Z,21.200000
2023-02-05T10:42:00.391Z,21.200000
2023-02-05T10:43:00.295Z,10.200000
2023-02-05T10:44:00.356Z,10.200000
2023-02-05T10:45:06.307Z,10.200000
2023-02-05T10:46:00.498Z,10.500000
2023-02-05T10:47:00.322Z,10.500000
2023-02-05T10:48:00.402Z,10.500000
2023-02-05T10:49:00.329Z,10.500000
2023-02-05T10:50:04.821Z,10.700000
2023-02-05T10:51:00.324Z,10.700000
2023-02-05T10:52:00.395Z,10.700000
2023-02-05T10:53:00.358Z,9.400000
2023-02-05T10:54:00.424Z,9.400000
2023-02-05T10:55:05.244Z,9.400000
2023-02-05T10:56:00.441Z,9.400000
2023-02-05T10:57:00.401Z,9.400000
2023-02-05T10:58:00.452Z,8.400000
2023-02-05T10:59:00.413Z,8.400000
2023-02-05T11:00:05.141Z,9.100000
2023-02-05T11:01:00.425Z,9.100000
2023-02-05T11:02:00.594Z,9.100000
2023-02-05T11:03:00.474Z,10.500000
2023-02-05T11:04:00.545Z,10.500000
2023-02-05T11:05:04.728Z,10.500000
2023-02-05T11:06:00.517Z,10.500000
2023-02-05T11:07:00.442Z,10.500000
2023-02-05T11:08:00.510Z,9.800000
2023-02-05T11:09:00.458Z,9.800000
2023-02-05T11:10:05.032Z,10.000000
2023-02-05T11:11:00.484Z,10.000000
2023-02-05T11:12:00.558Z,10.000000
2023-02-05T11:13:00.469Z,10.000000
2023-02-05T11:14:00.546Z,10.000000
2023-02-05T11:15:05.662Z,10.000000
2023-02-05T11:16:00.628Z,10.000000
2023-02-05T11:17:00.529Z,10.000000
2023-02-05T11:18:00.596Z,10.000000
2023-02-05T11:19:00.499Z,10.600000
2023-02-05T11:20:05.011Z,10.600000
2023-02-05T11:21:00.551Z,10.600000
2023-02-05T11:22:00.600Z,10.600000
2023-02-05T11:23:00.566Z,10.500000
2023-02-05T11:24:00.625Z,10.500000
2023-02-05T11:25:04.955Z,10.500000
2023-02-05T11:26:00.631Z,13.100000
2023-02-05T11:27:00.573Z,13.100000
2023-02-05T11:28:00.689Z,13.100000
2023-02-05T11:29:00.585Z,13.100000
2023-02-05T11:30:04.154Z,13.100000
2023-02-05T11:31:00.942Z,9.300000
2023-02-05T11:32:00.907Z,9.300000
2023-02-05T11:33:00.705Z,11.000000
2023-02-05T11:34:00.663Z,11.000000
2023-02-05T11:35:05.038Z,11.000000
2023-02-05T11:36:00.715Z,9.700000
2023-02-05T11:37:00.611Z,9.700000
2023-02-05T11:38:00.699Z,9.700000
2023-02-05T11:39:00.637Z,12.200000
2023-02-05T11:40:05.129Z,12.200000
2023-02-05T11:41:00.662Z,12.200000